Time;durP1;ratioP1;P1;durP2;ratioP2;P2;SDS_P1;SDS_P2;PMS_P1;PMS_P2;Temp;Humidity;BMP_temperature;BMP_pressure;BME280_temperature;BME280_humidity;BME280_pressure;Samples;Min_cycle;Max_cycle;Signal;HPM_P1;HPM_P2
2022/11/17 00:01:58;;;;;;;6.22;2.78;;;;;;;13.75;62.07;98897.84;5006623;28;114111;-71
2022/11/17 00:04:27;;;;;;;7.15;2.65;;;;;;;13.76;62.21;98894.19;5006080;28;113948;-72
2022/11/17 00:06:56;;;;;;;7.25;2.50;;;;;;;13.77;62.08;98885.25;5007389;27;123856;-72
2022/11/17 00:09:23;;;;;;;6.63;2.83;;;;;;;13.78;62.16;98880.75;4992158;28;124346;-71
2022/11/17 00:14:36;;;;;;;5.50;2.22;;;;;;;13.77;62.22;98845.34;5001886;28;114558;-72
2022/11/17 00:17:09;;;;;;;5.22;2.40;;;;;;;13.78;62.29;98854.97;5008253;28;123587;-71
2022/11/17 00:22:24;;;;;;;6.45;2.38;;;;;;;13.80;62.43;98828.25;5004495;28;114926;-71
2022/11/17 00:24:51;;;;;;;4.90;2.20;;;;;;;13.80;62.37;98815.78;5002655;28;117306;-71
2022/11/17 00:27:18;;;;;;;5.32;2.30;;;;;;;13.81;62.53;98806.00;4998956;28;123855;-72
2022/11/17 00:29:45;;;;;;;6.18;2.38;;;;;;;13.81;62.43;98788.19;5002105;28;123606;-72
2022/11/17 00:35:00;;;;;;;4.35;2.00;;;;;;;13.82;62.50;98781.91;5002476;28;113425;-71
2022/11/17 00:37:29;;;;;;;8.07;2.05;;;;;;;13.82;62.52;98781.91;5005219;28;123683;-71
2022/11/17 00:39:56;;;;;;;4.38;2.15;;;;;;;13.83;62.55;98767.59;5003390;28;123165;-71
2022/11/17 00:42:27;;;;;;;4.28;1.70;;;;;;;13.85;62.54;98774.63;5006760;28;113338;-71
2022/11/17 00:44:54;;;;;;;4.80;1.80;;;;;;;13.84;62.56;98773.75;5009194;28;114590;-71
2022/11/17 00:47:21;;;;;;;5.80;1.85;;;;;;;13.87;62.48;98772.66;5011039;28;124600;-71
2022/11/17 00:49:48;;;;;;;4.63;1.80;;;;;;;13.87;62.94;98778.81;4989909;28;122721;-71
2022/11/17 00:52:15;;;;;;;3.90;1.70;;;;;;;13.89;62.71;98770.69;4988567;28;114059;-71
2022/11/17 00:54:42;;;;;;;3.50;1.70;;;;;;;13.91;62.77;98763.41;4984375;28;113637;-70
2022/11/17 00:57:09;;;;;;;2.47;1.40;;;;;;;13.94;62.78;98752.47;4983727;28;123602;-71
2022/11/17 00:59:36;;;;;;;5.45;1.52;;;;;;;13.93;62.83;98746.31;5001851;28;123905;-71
2022/11/17 01:02:03;;;;;;;3.67;1.55;;;;;;;13.95;62.75;98749.66;4999345;28;115213;-71
2022/11/17 01:04:30;;;;;;;4.13;1.80;;;;;;;13.96;62.69;98739.88;4987732;28;112778;-71
2022/11/17 01:06:57;;;;;;;5.22;1.90;;;;;;;13.97;62.63;98725.56;5009724;28;124201;-71
2022/11/17 01:09:24;;;;;;;6.25;1.92;;;;;;;13.97;62.79;98714.91;4999314;28;124008;-71
2022/11/17 01:11:51;;;;;;;5.45;2.03;;;;;;;13.98;62.73;98695.31;4984653;28;114396;-71
2022/11/17 01:14:22;;;;;;;4.43;1.98;;;;;;;13.97;62.71;98698.94;4995656;28;114885;-72
2022/11/17 01:16:50;;;;;;;4.35;1.50;;;;;;;13.95;62.77;98691.09;5000525;28;123244;-71
2022/11/17 01:19:18;;;;;;;5.53;1.73;;;;;;;13.96;62.85;98691.97;4972760;28;123706;-72
2022/11/17 01:21:45;;;;;;;3.78;1.30;;;;;;;13.96;62.80;98686.66;5001839;28;114494;-71
2022/11/17 01:24:15;;;;;;;6.57;1.70;;;;;;;13.95;62.89;98679.63;5006296;28;113697;-71
2022/11/17 01:26:43;;;;;;;4.80;1.50;;;;;;;13.96;62.73;98686.66;5009680;28;124614;-71
2022/11/17 01:29:12;;;;;;;4.47;1.50;;;;;;;13.96;63.03;98707.94;5004928;28;123131;-71
2022/11/17 01:31:42;;;;;;;4.88;1.55;;;;;;;13.97;62.88;98688.31;5002692;28;115101;-71
2022/11/17 01:34:10;;;;;;;4.13;1.80;;;;;;;13.98;63.09;98711.28;4997516;28;114113;-71
2022/11/17 01:39:28;;;;;;;3.08;1.50;;;;;;;14.01;62.90;98705.66;5000738;28;123342;-72
2022/11/17 01:41:55;;;;;;;3.20;1.70;;;;;;;14.01;63.00;98695.88;5007768;28;114096;-71
2022/11/17 01:44:34;;;;;;;5.70;1.90;;;;;;;14.00;62.93;98688.03;5003394;28;114184;-71
2022/11/17 01:47:03;;;;;;;2.70;1.63;;;;;;;14.01;62.93;98673.72;4985994;28;125367;-71
2022/11/17 01:49:31;;;;;;;4.13;1.85;;;;;;;14.02;63.05;98675.41;4987919;28;123799;-71
2022/11/17 01:52:03;;;;;;;3.25;1.63;;;;;;;14.03;63.10;98661.09;4998648;28;114492;-71
2022/11/17 01:54:34;;;;;;;4.30;1.65;;;;;;;14.03;63.16;98661.09;4985609;28;114256;-71
2022/11/17 01:57:09;;;;;;;4.15;1.83;;;;;;;14.03;63.11;98655.78;4986309;28;123256;-71
2022/11/17 01:59:41;;;;;;;3.33;1.50;;;;;;;14.04;63.05;98652.16;5005819;28;124237;-71
2022/11/17 02:02:08;;;;;;;3.33;1.42;;;;;;;14.06;62.98;98650.19;5002007;28;115099;-71
2022/11/17 02:04:48;;;;;;;5.57;1.58;;;;;;;14.09;63.19;98649.03;4995223;28;114778;-71
2022/11/17 02:07:24;;;;;;;3.28;1.10;;;;;;;14.10;63.21;98640.91;4982948;28;123642;-71
2022/11/17 02:09:52;;;;;;;2.20;1.30;;;;;;;14.14;63.14;98647.63;4985478;28;124328;-71
2022/11/17 02:12:22;;;;;;;4.93;1.50;;;;;;;14.18;63.11;98637.53;4990037;28;114084;-71
2022/11/17 02:14:52;;;;;;;3.75;1.45;;;;;;;14.20;63.03;98636.41;4989867;28;113960;-71
2022/11/17 02:17:21;;;;;;;5.10;1.55;;;;;;;14.23;62.93;98635.25;4999655;28;124652;-70
2022/11/17 02:20:11;;;;;;;2.97;1.40;;;;;;;14.25;63.04;98627.13;5005961;28;124680;-71
2022/11/17 02:22:57;;;;;;;5.15;1.40;;;;;;;14.28;62.95;98626.81;5004992;28;113715;-70
2022/11/17 02:25:29;;;;;;;;;;;;;;;14.25;62.65;98613.81;5011948;28;114535;-71
2022/11/17 02:28:16;;;;;;;3.42;1.30;;;;;;;14.27;62.69;98598.53;5007695;28;124229;-71
2022/11/17 02:30:58;;;;;;;3.13;1.60;;;;;;;14.26;62.65;98624.34;5007741;28;123982;-71
2022/11/17 02:33:53;;;;;;;4.22;1.42;;;;;;;14.28;62.68;98621.50;5000099;28;114239;-71
2022/11/17 02:36:45;;;;;;;2.37;1.20;;;;;;;14.30;62.65;98619.56;4997658;28;113511;-71
2022/11/17 02:39:21;;;;;;;4.72;1.08;;;;;;;14.32;62.82;98612.25;5003434;28;123493;-70
2022/11/17 02:42:02;;;;;;;3.63;1.13;;;;;;;14.35;62.76;98606.59;4995198;28;122248;-71
2022/11/17 02:44:51;;;;;;;2.33;1.05;;;;;;;14.37;62.56;98604.63;5006976;28;114488;-70
2022/11/17 02:47:40;;;;;;;3.20;1.27;;;;;;;14.37;62.63;98593.97;4987541;28;114534;-70
2022/11/17 02:50:09;;;;;;;2.65;1.35;;;;;;;14.37;62.53;98593.97;4983514;28;124096;-70
2022/11/17 02:52:37;;;;;;;2.50;1.08;;;;;;;14.38;62.63;98590.34;5007527;28;122818;-71
2022/11/17 02:55:07;;;;;;;2.20;1.20;;;;;;;14.38;62.60;98572.53;4991064;28;113705;-71
2022/11/17 02:57:37;;;;;;;5.25;1.38;;;;;;;14.38;62.46;98579.69;5011824;28;115085;-70
2022/11/17 03:00:13;;;;;;;2.92;1.20;;;;;;;14.36;62.48;98581.66;5015624;28;123970;-71
2022/11/17 03:02:47;;;;;;;4.93;1.33;;;;;;;14.33;62.35;98565.97;5006543;28;124207;-70
2022/11/17 03:05:14;;;;;;;1.92;1.05;;;;;;;14.32;62.49;98570.47;5009875;28;114791;-70
2022/11/17 03:07:56;;;;;;;3.75;1.20;;;;;;;14.31;62.29;98573.28;4997755;28;113055;-71
2022/11/17 03:10:34;;;;;;;2.95;1.17;;;;;;;14.29;62.43;98583.25;5004105;28;124142;-71
2022/11/17 03:13:16;;;;;;;3.55;1.40;;;;;;;14.27;62.39;98577.22;5004432;28;124487;-70
2022/11/17 03:16:01;;;;;;;3.67;1.02;;;;;;;14.26;62.46;98564.91;5006171;28;114352;-71
2022/11/17 03:18:35;;;;;;;3.25;0.90;;;;;;;14.26;62.32;98543.59;5007516;28;113703;-70
2022/11/17 03:21:13;;;;;;;2.50;1.37;;;;;;;14.24;62.40;98519.81;5009906;28;124163;-70
2022/11/17 03:23:53;;;;;;;3.65;0.90;;;;;;;14.23;62.45;98464.03;5001413;28;124310;-70
2022/11/17 03:26:30;;;;;;;2.03;0.90;;;;;;;14.20;62.56;98497.97;5013797;28;114167;-70
2022/11/17 03:29:00;;;;;;;1.65;0.90;;;;;;;14.21;62.48;98515.59;5000632;28;112841;-70
2022/11/17 03:31:30;;;;;;;2.78;0.90;;;;;;;14.23;62.55;98511.97;5004637;28;124816;-70
2022/11/17 03:33:59;;;;;;;2.88;0.90;;;;;;;14.23;62.58;98511.97;5000677;28;123917;-70
2022/11/17 03:36:32;;;;;;;1.60;0.70;;;;;;;14.24;62.55;98487.00;4992961;28;114807;-71
2022/11/17 03:39:14;;;;;;;2.33;0.70;;;;;;;14.24;62.57;98497.66;5009452;28;114312;-71
2022/11/17 03:41:44;;;;;;;2.70;0.52;;;;;;;14.25;62.61;98494.00;5001793;28;124673;-70
2022/11/17 03:44:15;;;;;;;1.25;0.55;;;;;;;14.25;62.50;98467.38;5005050;28;123380;-70
2022/11/17 03:46:47;;;;;;;2.35;0.73;;;;;;;14.26;62.53;98466.38;4986773;28;115642;-70
2022/11/17 03:49:29;;;;;;;1.40;0.60;;;;;;;14.26;62.61;98469.03;5010315;28;113927;-71
2022/11/17 03:51:56;;;;;;;1.85;0.80;;;;;;;14.27;62.61;98481.38;5003214;28;124311;-70
2022/11/17 03:54:24;;;;;;;1.98;0.80;;;;;;;14.28;62.68;98483.03;5000069;28;123366;-71
2022/11/17 03:57:03;;;;;;;1.73;0.80;;;;;;;14.28;62.59;98483.03;5007476;28;114054;-70
2022/11/17 03:59:48;;;;;;;2.42;0.90;;;;;;;14.29;62.73;98484.72;4987575;28;114018;-70
2022/11/17 04:02:19;;;;;;;2.17;0.93;;;;;;;14.28;62.65;98475.91;4991367;28;125120;-71
2022/11/17 04:05:04;;;;;;;1.85;1.10;;;;;;;14.28;62.63;98488.38;5007546;28;123987;-70
2022/11/17 04:07:36;;;;;;;2.90;1.40;;;;;;;14.28;62.59;98488.38;5007586;28;114620;-71
2022/11/17 04:10:04;;;;;;;3.53;1.10;;;;;;;14.27;62.73;98481.38;5000779;28;113765;-70
2022/11/17 04:18:03;;;;;;;3.30;1.08;;;;;;;14.25;62.62;98483.38;5005404;28;114450;-70
2022/11/17 04:20:34;;;;;;;2.67;1.10;;;;;;;14.26;62.66;98485.03;5005770;28;114245;-71
2022/11/17 04:23:10;;;;;;;2.38;1.23;;;;;;;14.24;62.55;98471.03;5002027;28;124540;-71
2022/11/17 04:28:37;;;;;;;3.33;1.63;;;;;;;14.23;62.60;98469.38;4994831;28;114154;-71
2022/11/17 04:31:17;;;;;;;3.22;1.20;;;;;;;14.23;62.63;98464.88;4977457;28;113847;-71
2022/11/17 04:33:47;;;;;;;2.97;1.67;;;;;;;14.23;62.80;98458.72;4985995;28;123813;-71
2022/11/17 04:36:17;;;;;;;2.22;1.40;;;;;;;14.23;62.83;98461.38;4987028;28;123435;-70
2022/11/17 04:38:46;;;;;;;1.95;1.42;;;;;;;14.23;62.94;98442.75;4986129;28;114488;-71
2022/11/17 04:44:02;;;;;;;3.70;1.10;;;;;;;14.25;62.92;98435.44;5002823;28;123919;-71
2022/11/17 04:46:31;;;;;;;2.33;1.00;;;;;;;14.25;62.94;98430.94;4988132;28;123211;-71
2022/11/17 04:48:58;;;;;;;2.63;1.23;;;;;;;14.28;62.97;98424.47;4999919;28;114250;-71
2022/11/17 04:51:26;;;;;;;2.75;1.00;;;;;;;14.29;62.82;98436.81;5002368;28;114331;-71
2022/11/17 04:53:53;;;;;;;2.00;1.13;;;;;;;14.31;62.67;98434.81;4979444;28;123643;-71
2022/11/17 04:56:21;;;;;;;2.25;1.00;;;;;;;14.32;62.83;98431.19;4986827;28;123918;-72
2022/11/17 04:58:49;;;;;;;2.22;0.80;;;;;;;14.33;62.70;98422.19;5002015;28;114062;-71
2022/11/17 05:01:17;;;;;;;1.17;0.80;;;;;;;14.34;62.76;98434.53;4983726;28;113640;-71
2022/11/17 05:03:52;;;;;;;2.30;0.80;;;;;;;14.32;62.82;98434.69;5008447;28;123486;-71
2022/11/17 05:06:32;;;;;;;2.33;1.05;;;;;;;14.35;62.52;98446.84;5007118;28;123785;-71
2022/11/17 05:09:03;;;;;;;2.97;1.10;;;;;;;14.37;62.83;98428.88;4985223;28;114381;-71
2022/11/17 05:14:18;;;;;;;4.07;1.15;;;;;;;14.38;62.86;98425.25;5002732;28;124143;-71
2022/11/17 05:17:04;;;;;;;2.22;0.90;;;;;;;14.38;62.95;98419.91;5003104;28;123652;-71
2022/11/17 05:19:45;;;;;;;2.47;0.88;;;;;;;14.38;62.99;98420.75;5001044;28;114481;-71
2022/11/17 05:25:27;;;;;;;3.20;0.88;;;;;;;14.38;62.87;98425.25;4907849;28;123977;-71
2022/11/17 05:27:54;;;;;;;2.83;0.65;;;;;;;14.38;63.07;98419.91;4907584;28;124863;-71
2022/11/17 05:30:21;;;;;;;3.10;0.93;;;;;;;14.39;63.31;98416.25;4954699;28;115559;-71
2022/11/17 05:32:48;;;;;;;4.10;1.00;;;;;;;14.41;63.14;98424.94;4984865;28;115394;-71
2022/11/17 05:35:15;;;;;;;3.92;1.00;;;;;;;14.40;63.25;98424.09;5003183;28;124504;-71
2022/11/17 05:37:42;;;;;;;2.10;0.82;;;;;;;14.41;63.20;98430.28;5000876;28;123758;-71
2022/11/17 05:40:09;;;;;;;2.20;0.80;;;;;;;14.41;63.27;98432.94;5003420;28;115030;-71
2022/11/17 05:42:36;;;;;;;2.28;0.75;;;;;;;14.42;63.13;98429.25;5003634;28;113546;-71
2022/11/17 05:45:03;;;;;;;3.75;1.00;;;;;;;14.41;63.19;98427.59;5006214;28;123551;-71
2022/11/17 05:47:30;;;;;;;2.10;0.80;;;;;;;14.40;63.25;98423.25;4986898;28;124592;-71
2022/11/17 05:49:57;;;;;;;4.80;1.15;;;;;;;14.40;63.33;98439.25;4965354;28;113790;-71
2022/11/17 05:52:24;;;;;;;2.92;0.90;;;;;;;14.39;63.28;98438.41;5004873;28;113755;-71
2022/11/17 05:54:51;;;;;;;2.72;1.00;;;;;;;14.39;63.41;98437.56;4984938;28;123606;-70
2022/11/17 05:57:28;;;;;;;2.75;0.85;;;;;;;14.39;63.38;98458.84;5001193;28;125461;-71
2022/11/17 06:00:00;;;;;;;2.70;0.90;;;;;;;14.39;63.48;98453.53;5002678;28;114407;-71
2022/11/17 06:02:58;;;;;;;3.38;0.70;;;;;;;14.40;63.41;98449.88;4985094;28;112922;-71
2022/11/17 06:05:26;;;;;;;4.95;1.23;;;;;;;14.41;63.48;98451.56;4983444;28;124771;-71
2022/11/17 06:07:56;;;;;;;3.03;0.85;;;;;;;14.42;63.83;98458.56;4982356;28;123216;-71
2022/11/17 06:10:24;;;;;;;6.55;1.10;;;;;;;14.43;63.48;98454.91;4981610;28;113878;-71
2022/11/17 06:12:51;;;;;;;3.80;0.98;;;;;;;14.47;63.71;98466.94;4996006;28;114383;-71
2022/11/17 06:15:18;;;;;;;6.15;1.00;;;;;;;14.48;63.67;98447.28;5003923;28;123622;-70
2022/11/17 06:17:53;;;;;;;3.58;1.20;;;;;;;14.49;63.71;98459.63;5002461;28;122833;-70
2022/11/17 06:20:25;;;;;;;3.95;1.10;;;;;;;14.52;63.66;98455.81;5004404;28;115192;-70
2022/11/17 06:22:56;;;;;;;4.97;1.10;;;;;;;14.54;63.68;98457.34;4975463;28;113760;-73
2022/11/17 06:25:23;;;;;;;6.97;1.25;;;;;;;14.56;63.65;98460.69;4997109;28;123466;-70
2022/11/17 06:27:51;;;;;;;5.55;1.15;;;;;;;14.56;63.67;98455.38;4985138;28;124140;-71
2022/11/17 06:30:18;;;;;;;5.03;1.10;;;;;;;14.57;63.62;98459.72;4996183;28;114073;-70
2022/11/17 06:32:46;;;;;;;4.28;1.10;;;;;;;14.58;63.60;98461.41;5003064;28;114302;-70
2022/11/17 06:35:15;;;;;;;4.57;1.00;;;;;;;14.57;63.55;98467.72;5004158;28;125150;-70
2022/11/17 06:37:42;;;;;;;4.70;1.10;;;;;;;14.58;63.60;98464.06;4983037;28;123452;-71
2022/11/17 06:40:12;;;;;;;5.10;1.00;;;;;;;14.58;63.63;98469.41;4998128;28;113945;-70
2022/11/17 06:45:25;;;;;;;6.25;1.33;;;;;;;14.58;63.62;98466.72;5009087;28;123827;-71
2022/11/17 06:47:52;;;;;;;4.63;0.82;;;;;;;14.59;63.52;98476.38;5007401;28;124298;-70
2022/11/17 06:50:20;;;;;;;6.82;0.90;;;;;;;14.59;63.51;98471.06;5003785;28;114469;-70
2022/11/17 06:52:47;;;;;;;5.97;1.10;;;;;;;14.62;63.30;98482.41;5006778;28;114691;-70
2022/11/17 06:55:14;;;;;;;3.88;1.00;;;;;;;14.62;63.31;98485.06;4985069;28;124817;-71
2022/11/17 06:57:41;;;;;;;3.90;0.90;;;;;;;14.63;63.43;98484.09;5008898;28;123883;-71
2022/11/17 07:00:09;;;;;;;7.18;1.10;;;;;;;14.64;63.27;98493.75;4997316;28;113663;-71
2022/11/17 07:02:36;;;;;;;4.70;1.17;;;;;;;14.64;63.27;98493.75;4990975;28;113092;-70
2022/11/17 07:05:03;;;;;;;3.80;1.00;;;;;;;14.64;63.20;98504.41;5000158;28;124525;-71
2022/11/17 07:07:30;;;;;;;5.65;1.02;;;;;;;14.62;63.14;98507.22;5017299;28;123844;-71
2022/11/17 07:09:58;;;;;;;5.22;1.05;;;;;;;14.60;63.23;98510.03;5004512;28;114295;-71
2022/11/17 07:12:25;;;;;;;4.32;0.90;;;;;;;14.60;63.07;98507.38;4982839;28;114417;-71
2022/11/17 07:14:52;;;;;;;4.50;1.00;;;;;;;14.59;63.09;98513.69;5002404;28;124133;-72
2022/11/17 07:17:19;;;;;;;4.53;1.02;;;;;;;14.58;62.96;98508.53;4984193;28;124356;-72
2022/11/17 07:19:46;;;;;;;5.10;1.10;;;;;;;14.57;63.10;98515.66;5004118;28;114778;-71
2022/11/17 07:22:13;;;;;;;4.68;1.00;;;;;;;14.56;62.97;98524.63;4998333;28;113729;-72
2022/11/17 07:24:40;;;;;;;2.17;0.63;;;;;;;14.55;62.83;98522.94;5006602;28;124938;-72
2022/11/17 07:27:07;;;;;;;4.00;0.90;;;;;;;14.55;62.84;98533.59;4972498;28;124327;-71
2022/11/17 07:29:34;;;;;;;6.43;0.80;;;;;;;14.54;62.95;98531.94;5008839;28;114720;-72
2022/11/17 07:32:01;;;;;;;5.63;1.00;;;;;;;14.53;62.88;98524.91;5003335;28;113700;-72
2022/11/17 07:34:28;;;;;;;3.15;1.05;;;;;;;14.52;62.77;98523.25;5004070;28;123776;-73
2022/11/17 07:36:55;;;;;;;4.95;1.20;;;;;;;14.52;62.93;98523.25;4980070;28;123505;-71
2022/11/17 07:39:22;;;;;;;6.40;1.00;;;;;;;14.52;62.82;98531.25;4970932;28;113798;-72
2022/11/17 07:41:49;;;;;;;4.43;0.90;;;;;;;14.52;62.71;98539.25;5002060;28;114732;-71
2022/11/17 07:44:16;;;;;;;4.75;0.90;;;;;;;14.52;62.77;98549.91;5006250;28;123744;-71
2022/11/17 07:46:43;;;;;;;3.85;1.02;;;;;;;14.53;62.82;98556.88;4989272;28;124337;-72
2022/11/17 07:49:10;;;;;;;6.75;0.88;;;;;;;14.51;62.83;98561.53;5011633;28;114237;-72
2022/11/17 07:51:37;;;;;;;5.90;0.80;;;;;;;14.50;62.85;98554.50;4988427;28;114110;-71
2022/11/17 07:54:05;;;;;;;5.15;0.85;;;;;;;14.50;62.63;98567.00;4993986;28;123649;-71
2022/11/17 07:56:33;;;;;;;2.65;0.88;;;;;;;14.49;62.78;98571.50;5006681;28;125488;-71
2022/11/17 07:59:00;;;;;;;4.15;0.73;;;;;;;14.49;62.90;98571.50;4984815;28;114034;-72
2022/11/17 08:01:28;;;;;;;3.78;0.80;;;;;;;14.48;62.63;98572.47;5013592;28;114647;-72
2022/11/17 08:03:56;;;;;;;4.63;0.73;;;;;;;14.47;62.80;98581.47;4993772;28;123828;-71
2022/11/17 08:06:23;;;;;;;4.00;0.90;;;;;;;14.44;62.79;98579.09;5006118;28;124091;-72
2022/11/17 08:08:50;;;;;;;2.75;0.70;;;;;;;14.41;62.74;98585.56;4982739;28;112923;-71
2022/11/17 08:11:18;;;;;;;3.45;0.98;;;;;;;14.40;62.72;98588.38;5008901;28;113964;-72
2022/11/17 08:13:46;;;;;;;1.90;0.73;;;;;;;14.38;62.78;98585.03;4994907;28;123964;-71
2022/11/17 08:16:13;;;;;;;3.50;0.70;;;;;;;14.35;62.68;98579.97;5003023;28;123597;-71
2022/11/17 08:18:40;;;;;;;2.25;0.95;;;;;;;14.34;62.62;98583.66;5005704;28;114666;-72
2022/11/17 08:21:13;;;;;;;2.35;0.70;;;;;;;14.31;62.48;98595.41;5008281;28;114296;-71
2022/11/17 08:23:40;;;;;;;3.58;0.93;;;;;;;14.31;62.65;98591.91;4992280;28;124434;-71
2022/11/17 08:26:09;;;;;;;4.25;0.70;;;;;;;14.29;62.60;98591.22;4990509;28;123978;-71
2022/11/17 08:28:37;;;;;;;2.65;0.70;;;;;;;14.29;62.72;98591.22;4995393;28;114630;-71
2022/11/17 08:31:06;;;;;;;3.47;0.60;;;;;;;14.29;62.53;98596.56;5002319;28;113735;-71
2022/11/17 08:33:34;;;;;;;3.22;0.63;;;;;;;14.28;62.72;98605.53;4998795;28;123910;-71
2022/11/17 08:36:04;;;;;;;2.22;0.70;;;;;;;14.28;62.50;98594.88;4991100;28;122911;-71
2022/11/17 08:38:32;;;;;;;2.63;0.73;;;;;;;14.27;62.49;98603.84;5013218;28;114470;-71
2022/11/17 08:41:02;;;;;;;2.20;0.70;;;;;;;14.26;62.52;98603.03;4987072;28;112537;-71
2022/11/17 08:43:30;;;;;;;2.05;0.60;;;;;;;14.26;62.57;98607.50;4997845;28;123944;-71
2022/11/17 08:45:57;;;;;;;4.95;0.80;;;;;;;14.24;62.56;98604.16;4973168;28;122868;-71
2022/11/17 08:48:24;;;;;;;3.60;0.75;;;;;;;14.24;62.55;98615.66;4994414;28;114760;-71
2022/11/17 08:50:52;;;;;;;1.60;0.65;;;;;;;14.24;62.54;98609.47;5012791;28;97283;-71
2022/11/17 08:53:22;;;;;;;3.05;1.00;;;;;;;14.23;62.64;98605.16;4996416;28;123996;-71
2022/11/17 08:55:50;;;;;;;3.67;0.70;;;;;;;14.24;62.54;98617.47;5005452;28;123486;-72
2022/11/17 08:58:17;;;;;;;2.40;0.65;;;;;;;14.25;62.53;98621.81;5017494;28;114227;-71
2022/11/17 09:00:46;;;;;;;2.03;0.50;;;;;;;14.24;62.56;98620.97;4957011;28;113029;-71
2022/11/17 09:03:13;;;;;;;2.78;0.63;;;;;;;14.25;62.52;98621.81;4990864;28;124889;-71
2022/11/17 09:05:44;;;;;;;1.15;0.60;;;;;;;14.25;62.56;98617.31;4991287;28;124195;-71
2022/11/17 09:08:13;;;;;;;2.13;0.60;;;;;;;14.25;62.63;98627.13;5011423;28;114257;-72
2022/11/17 09:11:08;;;;;;;2.22;0.57;;;;;;;14.24;62.48;98625.44;4991705;28;113535;-71
2022/11/17 09:13:36;;;;;;;1.42;0.50;;;;;;;14.24;62.55;98630.78;5001855;28;124634;-72
2022/11/17 09:16:09;;;;;;;2.15;0.55;;;;;;;14.23;62.57;98642.41;4980806;28;122624;-71
2022/11/17 09:18:37;;;;;;;2.75;0.80;;;;;;;14.20;62.60;98636.41;5003055;28;114771;-71
2022/11/17 09:21:10;;;;;;;2.30;0.70;;;;;;;14.19;62.44;98650.69;5010415;28;113863;-71
2022/11/17 09:23:37;;;;;;;1.40;0.50;;;;;;;14.17;62.49;98634.03;5022138;28;123483;-71
2022/11/17 09:26:10;;;;;;;3.72;0.73;;;;;;;14.16;62.47;98640.31;4985337;28;122955;-71
2022/11/17 09:28:38;;;;;;;1.98;0.52;;;;;;;14.14;62.49;98647.63;5007575;28;113973;-71
2022/11/17 09:31:07;;;;;;;1.35;0.60;;;;;;;14.13;62.55;98648.63;5001923;28;114817;-71
2022/11/17 09:33:35;;;;;;;2.63;0.75;;;;;;;14.12;62.45;98659.41;4997246;28;124273;-71
2022/11/17 09:36:02;;;;;;;3.42;0.80;;;;;;;14.10;62.41;98656.88;4997668;28;124084;-71
2022/11/17 09:38:29;;;;;;;3.83;0.70;;;;;;;14.09;62.49;98665.00;4990506;28;115097;-71
2022/11/17 09:40:58;;;;;;;4.13;0.98;;;;;;;14.06;62.52;98666.16;4996071;28;114508;-71
2022/11/17 09:43:28;;;;;;;4.90;0.90;;;;;;;14.07;62.61;98672.31;5002095;28;123872;-72
2022/11/17 09:46:20;;;;;;;3.58;0.60;;;;;;;14.07;62.26;98669.66;4986613;28;123758;-71
2022/11/17 09:48:57;;;;;;;2.42;0.80;;;;;;;14.06;62.62;98682.13;5010343;28;115240;-71
2022/11/17 09:51:28;;;;;;;2.30;0.60;;;;;;;14.07;62.56;98675.81;4979591;28;113953;-71
2022/11/17 09:54:05;;;;;;;2.28;0.60;;;;;;;14.09;62.63;98681.84;4987240;28;124496;-71
2022/11/17 09:56:32;;;;;;;3.28;0.80;;;;;;;14.10;62.47;98686.16;4996411;28;123623;-72
2022/11/17 09:59:10;;;;;;;2.42;0.80;;;;;;;14.10;62.82;98683.50;4996718;28;112324;-71
2022/11/17 10:01:37;;;;;;;2.30;0.70;;;;;;;14.12;62.66;98686.84;5006007;28;113645;-71
2022/11/17 10:04:11;;;;;;;2.03;0.80;;;;;;;14.15;62.68;98697.22;5002583;28;123696;-71
2022/11/17 10:06:43;;;;;;;3.40;0.70;;;;;;;14.19;62.60;98703.94;5012657;28;123996;-72
2022/11/17 10:09:38;;;;;;;2.35;0.70;;;;;;;14.25;62.69;98696.38;5018202;28;114103;-73
2022/11/17 10:12:37;;;;;;;3.00;0.70;;;;;;;14.31;62.85;98695.78;5019216;28;115903;-72
2022/11/17 10:15:22;;;;;;;1.92;0.70;;;;;;;14.41;62.85;98701.91;5009438;28;124965;-72
2022/11/17 10:17:49;;;;;;;2.03;0.63;;;;;;;14.51;63.09;98697.38;4991606;28;123602;-72
2022/11/17 10:20:19;;;;;;;2.72;0.70;;;;;;;14.60;62.81;98707.19;5009697;28;114795;-72
2022/11/17 10:22:49;;;;;;;2.08;0.70;;;;;;;14.71;62.86;98702.63;4976951;28;112867;-72
2022/11/17 10:25:35;;;;;;;4.47;0.90;;;;;;;14.80;62.63;98709.72;4997065;28;124794;-72
2022/11/17 10:28:05;;;;;;;3.50;0.60;;;;;;;14.88;62.47;98699.19;5008013;28;123524;-72
2022/11/17 10:30:33;;;;;;;2.22;0.60;;;;;;;14.94;62.32;98717.22;4995311;28;115465;-72
2022/11/17 10:33:01;;;;;;;2.05;0.60;;;;;;;15.01;62.24;98708.63;4993661;28;114775;-72
2022/11/17 10:35:34;;;;;;;3.65;0.73;;;;;;;15.07;62.05;98713.34;4997995;28;124252;-72
2022/11/17 10:38:06;;;;;;;0.88;0.60;;;;;;;15.13;61.77;98702.09;4997716;28;122999;-72
2022/11/17 10:40:57;;;;;;;2.08;0.55;;;;;;;15.19;61.72;98709.50;5003105;28;114650;-72
2022/11/17 10:43:31;;;;;;;3.67;0.88;;;;;;;15.23;61.54;98708.19;4992616;28;114078;-72
2022/11/17 10:46:11;;;;;;;2.28;0.75;;;;;;;15.30;61.38;98719.13;5009101;28;123420;-72
2022/11/17 10:48:53;;;;;;;2.50;0.73;;;;;;;15.35;61.40;98728.34;4979299;28;123260;-72
2022/11/17 10:51:24;;;;;;;1.50;0.70;;;;;;;15.42;61.24;98711.72;4994529;28;113972;-72
2022/11/17 10:54:16;;;;;;;3.40;0.50;;;;;;;15.47;61.19;98720.09;5012743;28;113506;-72
2022/11/17 10:56:47;;;;;;;1.65;0.70;;;;;;;15.49;60.77;98718.13;4987121;28;123697;-72
2022/11/17 10:59:27;;;;;;;3.28;0.60;;;;;;;15.52;60.80;98723.13;4988445;28;122733;-72
2022/11/17 11:01:54;;;;;;;3.08;0.50;;;;;;;15.54;60.57;98721.19;5004699;28;114952;-72
2022/11/17 11:04:33;;;;;;;3.45;0.52;;;;;;;15.57;60.38;98726.19;4974432;28;113994;-72
2022/11/17 11:07:18;;;;;;;1.38;0.65;;;;;;;15.58;60.27;98728.72;4991453;28;123890;-71
2022/11/17 11:09:48;;;;;;;;;;;;;;;15.59;60.70;98734.88;4974162;28;123033;-72
2022/11/17 11:12:23;;;;;;;1.60;0.50;;;;;;;15.63;60.22;98746.91;4974546;28;113551;-72
2022/11/17 11:14:56;;;;;;;4.93;0.70;;;;;;;15.66;60.15;98746.63;4987411;28;112743;-72
2022/11/17 11:17:26;;;;;;;4.70;0.60;;;;;;;15.67;59.79;98748.31;4991826;28;124768;-72
2022/11/17 11:19:54;;;;;;;0.98;0.50;;;;;;;15.70;59.94;98747.97;4973945;28;125425;-72
2022/11/17 11:22:36;;;;;;;1.38;0.60;;;;;;;15.69;59.66;98754.31;4990887;28;113571;-72
2022/11/17 11:25:31;;;;;;;2.40;0.80;;;;;;;15.71;59.36;98755.00;4994813;28;113728;-72
2022/11/17 11:28:01;;;;;;;3.97;0.75;;;;;;;15.71;59.36;98749.66;5000679;28;123844;-72
2022/11/17 11:30:33;;;;;;;2.40;0.50;;;;;;;15.71;59.11;98754.19;5006579;28;124055;-72
2022/11/17 11:33:25;;;;;;;2.03;0.52;;;;;;;15.70;59.01;98753.31;5005284;28;113990;-72
2022/11/17 11:36:20;;;;;;;1.88;0.60;;;;;;;15.68;59.19;98755.31;4991161;28;113743;-72
2022/11/17 11:38:51;;;;;;;2.10;0.77;;;;;;;15.67;59.11;98764.31;4996992;28;123997;-72
2022/11/17 11:41:24;;;;;;;2.80;0.63;;;;;;;15.66;59.25;98767.97;4960334;28;123089;-72
2022/11/17 11:44:00;;;;;;;2.50;0.70;;;;;;;15.66;59.02;98767.97;4991839;28;114236;-72
2022/11/17 11:46:58;;;;;;;2.20;0.60;;;;;;;15.67;58.99;98775.00;5011123;28;114539;-72
2022/11/17 11:49:44;;;;;;;1.85;0.70;;;;;;;15.65;59.14;98771.63;4982950;28;122973;-72
2022/11/17 11:52:20;;;;;;;1.08;0.50;;;;;;;15.63;59.02;98768.25;4993134;28;124140;-72
2022/11/17 11:54:56;;;;;;;0.95;0.50;;;;;;;15.63;58.86;98773.59;5004007;28;115800;-72
2022/11/17 11:57:34;;;;;;;1.73;0.70;;;;;;;15.63;58.83;98770.94;4977326;28;114143;-72
2022/11/17 12:00:05;;;;;;;1.40;0.55;;;;;;;15.65;58.68;98771.63;4997545;28;124268;-72
2022/11/17 12:03:03;;;;;;;3.67;0.70;;;;;;;15.65;58.54;98776.97;4997588;28;125082;-72
2022/11/17 12:05:55;;;;;;;;;;;;;;;15.64;59.09;98774.47;5000425;28;114160;-72
2022/11/17 12:08:36;;;;;;;1.35;0.60;;;;;;;15.66;58.61;98785.81;4998292;28;113892;-72
2022/11/17 12:14:02;;;;;;;2.90;0.70;;;;;;;15.62;58.49;98798.63;5004957;28;124471;-72
2022/11/17 12:16:34;;;;;;;2.42;0.60;;;;;;;15.60;58.48;98786.44;4994812;28;115152;-72
2022/11/17 12:19:40;;;;;;;1.05;0.47;;;;;;;15.61;58.35;98791.59;4983610;28;113270;-72
2022/11/17 12:22:07;;;;;;;2.97;0.52;;;;;;;15.62;58.19;98798.63;4995350;28;123869;-71
2022/11/17 12:24:40;;;;;;;2.08;0.50;;;;;;;15.63;58.05;98800.28;4999194;28;123703;-71